sensor_id;sensor_type;location;lat;lon;timestamp;pressure;altitude;pressure_sealevel;temperature;humidity
67377;BME280;54261;46.086;6.588;2023-03-03T00:00:16;92403.78;;;3.24;37.31
67377;BME280;54261;46.086;6.588;2023-03-03T00:05:18;92407.16;;;2.79;37.73
67377;BME280;54261;46.086;6.588;2023-03-03T00:10:20;92405.09;;;2.45;37.85
67377;BME280;54261;46.086;6.588;2023-03-03T00:15:24;92375.88;;;2.71;37.69
67377;BME280;54261;46.086;6.588;2023-03-03T00:20:35;92406.91;;;2.65;38.14
67377;BME280;54261;46.086;6.588;2023-03-03T00:25:41;92392.22;;;3.04;37.99
67377;BME280;54261;46.086;6.588;2023-03-03T00:30:44;92393.06;;;2.89;37.23
67377;BME280;54261;46.086;6.588;2023-03-03T00:35:45;92404.50;;;2.74;38.36
67377;BME280;54261;46.086;6.588;2023-03-03T00:40:47;92404.28;;;2.60;38.15
67377;BME280;54261;46.086;6.588;2023-03-03T00:45:51;92405.78;;;2.97;38.01
67377;BME280;54261;46.086;6.588;2023-03-03T00:50:55;92403.53;;;2.49;37.95
67377;BME280;54261;46.086;6.588;2023-03-03T00:55:58;92404.28;;;2.70;38.43
67377;BME280;54261;46.086;6.588;2023-03-03T01:00:59;92401.31;;;2.72;38.95
67377;BME280;54261;46.086;6.588;2023-03-03T01:06:12;92394.28;;;1.84;39.32
67377;BME280;54261;46.086;6.588;2023-03-03T01:11:20;92389.97;;;2.61;38.98
67377;BME280;54261;46.086;6.588;2023-03-03T01:16:24;92412.25;;;2.24;38.94
67377;BME280;54261;46.086;6.588;2023-03-03T01:21:26;92407.19;;;2.69;38.89
67377;BME280;54261;46.086;6.588;2023-03-03T01:26:28;92410.44;;;2.09;39.30
67377;BME280;54261;46.086;6.588;2023-03-03T01:31:30;92419.06;;;2.87;38.87
67377;BME280;54261;46.086;6.588;2023-03-03T01:36:32;92413.50;;;2.83;38.11
67377;BME280;54261;46.086;6.588;2023-03-03T01:41:34;92421.50;;;2.63;37.81
67377;BME280;54261;46.086;6.588;2023-03-03T01:52:12;92418.84;;;2.68;39.08
67377;BME280;54261;46.086;6.588;2023-03-03T01:57:29;92413.34;;;2.18;39.40
67377;BME280;54261;46.086;6.588;2023-03-03T02:02:33;92406.44;;;2.11;39.50
67377;BME280;54261;46.086;6.588;2023-03-03T02:07:36;92414.91;;;1.98;38.95
67377;BME280;54261;46.086;6.588;2023-03-03T02:17:53;92368.03;;;2.24;39.52
67377;BME280;54261;46.086;6.588;2023-03-03T02:28:07;92393.38;;;2.72;38.20
67377;BME280;54261;46.086;6.588;2023-03-03T02:33:09;92394.22;;;2.62;38.33
67377;BME280;54261;46.086;6.588;2023-03-03T02:43:26;92398.38;;;1.02;39.28
67377;BME280;54261;46.086;6.588;2023-03-03T02:48:30;92395.59;;;1.71;39.37
67377;BME280;54261;46.086;6.588;2023-03-03T02:53:32;92369.53;;;0.85;41.72
67377;BME280;54261;46.086;6.588;2023-03-03T02:58:36;92400.34;;;1.49;39.84
67377;BME280;54261;46.086;6.588;2023-03-03T03:03:38;92399.03;;;0.67;40.57
67377;BME280;54261;46.086;6.588;2023-03-03T03:08:41;92390.56;;;1.54;40.01
67377;BME280;54261;46.086;6.588;2023-03-03T03:13:43;92397.72;;;2.00;39.17
67377;BME280;54261;46.086;6.588;2023-03-03T03:18:46;92388.97;;;2.21;38.81
67377;BME280;54261;46.086;6.588;2023-03-03T03:23:49;92394.25;;;2.00;38.32
67377;BME280;54261;46.086;6.588;2023-03-03T03:28:51;92392.41;;;1.90;38.68
67377;BME280;54261;46.086;6.588;2023-03-03T03:33:53;92395.06;;;2.00;37.62
67377;BME280;54261;46.086;6.588;2023-03-03T03:38:56;92394.03;;;1.96;39.08
67377;BME280;54261;46.086;6.588;2023-03-03T03:43:59;92385.03;;;2.08;37.90
67377;BME280;54261;46.086;6.588;2023-03-03T03:49:01;92400.63;;;1.99;38.06
67377;BME280;54261;46.086;6.588;2023-03-03T03:54:03;92397.44;;;2.18;37.88
67377;BME280;54261;46.086;6.588;2023-03-03T03:59:08;92398.53;;;1.91;38.92
67377;BME280;54261;46.086;6.588;2023-03-03T04:04:11;92404.31;;;1.46;38.26
67377;BME280;54261;46.086;6.588;2023-03-03T04:09:14;92394.00;;;1.76;38.88
67377;BME280;54261;46.086;6.588;2023-03-03T04:14:16;92408.03;;;2.12;38.21
67377;BME280;54261;46.086;6.588;2023-03-03T04:19:19;92407.78;;;2.14;38.19
67377;BME280;54261;46.086;6.588;2023-03-03T04:24:23;92407.25;;;2.01;37.76
67377;BME280;54261;46.086;6.588;2023-03-03T04:29:26;92407.47;;;1.32;38.83
67377;BME280;54261;46.086;6.588;2023-03-03T04:34:29;92403.91;;;0.96;41.16
67377;BME280;54261;46.086;6.588;2023-03-03T04:39:31;92404.84;;;-0.12;42.82
67377;BME280;54261;46.086;6.588;2023-03-03T04:44:33;92392.91;;;1.35;40.86
67377;BME280;54261;46.086;6.588;2023-03-03T04:49:35;92405.66;;;1.59;40.34
67377;BME280;54261;46.086;6.588;2023-03-03T04:54:38;92410.09;;;1.32;40.23
67377;BME280;54261;46.086;6.588;2023-03-03T04:59:40;92399.81;;;1.57;40.27
67377;BME280;54261;46.086;6.588;2023-03-03T05:04:42;92407.13;;;1.08;40.78
67377;BME280;54261;46.086;6.588;2023-03-03T05:09:44;92410.81;;;1.02;41.31
67377;BME280;54261;46.086;6.588;2023-03-03T05:14:46;92411.75;;;1.85;40.89
67377;BME280;54261;46.086;6.588;2023-03-03T05:19:48;92414.66;;;2.05;40.20
67377;BME280;54261;46.086;6.588;2023-03-03T05:24:50;92423.13;;;2.27;39.08
67377;BME280;54261;46.086;6.588;2023-03-03T05:29:52;92422.59;;;2.36;38.75
67377;BME280;54261;46.086;6.588;2023-03-03T05:34:54;92416.00;;;2.07;38.81
67377;BME280;54261;46.086;6.588;2023-03-03T05:39:56;92426.34;;;0.88;40.27
67377;BME280;54261;46.086;6.588;2023-03-03T05:44:58;92427.53;;;1.23;40.43
67377;BME280;54261;46.086;6.588;2023-03-03T05:50:00;92435.13;;;1.04;40.51
67377;BME280;54261;46.086;6.588;2023-03-03T05:55:01;92431.59;;;1.67;40.09
67377;BME280;54261;46.086;6.588;2023-03-03T06:00:05;92424.22;;;1.95;39.88
67377;BME280;54261;46.086;6.588;2023-03-03T06:05:12;92427.09;;;2.20;39.23
67377;BME280;54261;46.086;6.588;2023-03-03T06:10:14;92437.97;;;1.82;38.31
67377;BME280;54261;46.086;6.588;2023-03-03T06:15:22;92437.66;;;1.52;38.85
67377;BME280;54261;46.086;6.588;2023-03-03T06:20:24;92442.25;;;1.03;39.98
67377;BME280;54261;46.086;6.588;2023-03-03T06:25:26;92435.47;;;1.28;39.66
67377;BME280;54261;46.086;6.588;2023-03-03T06:30:28;92422.84;;;1.62;39.39
67377;BME280;54261;46.086;6.588;2023-03-03T06:35:31;92445.59;;;1.52;38.77
67377;BME280;54261;46.086;6.588;2023-03-03T06:40:33;92418.38;;;1.67;38.92
67377;BME280;54261;46.086;6.588;2023-03-03T06:45:34;92421.47;;;-0.17;41.93
67377;BME280;54261;46.086;6.588;2023-03-03T06:50:36;92449.22;;;1.25;41.20
67377;BME280;54261;46.086;6.588;2023-03-03T06:55:40;92462.00;;;1.65;40.08
67377;BME280;54261;46.086;6.588;2023-03-03T07:05:51;92463.38;;;0.12;43.40
67377;BME280;54261;46.086;6.588;2023-03-03T07:10:54;92463.09;;;0.95;41.87
67377;BME280;54261;46.086;6.588;2023-03-03T07:15:58;92453.69;;;0.23;42.50
67377;BME280;54261;46.086;6.588;2023-03-03T07:26:23;92468.63;;;1.62;41.40
67377;BME280;54261;46.086;6.588;2023-03-03T07:31:33;92476.63;;;-1.88;47.91
67377;BME280;54261;46.086;6.588;2023-03-03T07:36:36;92483.88;;;-0.28;45.55
67377;BME280;54261;46.086;6.588;2023-03-03T07:41:38;92464.25;;;0.23;45.19
67377;BME280;54261;46.086;6.588;2023-03-03T07:46:43;92479.88;;;0.68;44.03
67377;BME280;54261;46.086;6.588;2023-03-03T07:51:45;92494.22;;;0.39;44.95
67377;BME280;54261;46.086;6.588;2023-03-03T07:56:47;92504.97;;;-3.83;54.63
67377;BME280;54261;46.086;6.588;2023-03-03T08:01:54;92501.31;;;-2.24;55.13
67377;BME280;54261;46.086;6.588;2023-03-03T08:06:58;92505.53;;;-3.34;54.14
67377;BME280;54261;46.086;6.588;2023-03-03T08:17:34;92471.09;;;-4.09;61.93
67377;BME280;54261;46.086;6.588;2023-03-03T08:22:37;92476.09;;;-4.19;58.50
67377;BME280;54261;46.086;6.588;2023-03-03T08:27:39;92497.38;;;-0.96;54.17
67377;BME280;54261;46.086;6.588;2023-03-03T08:32:40;92490.06;;;-0.44;53.66
67377;BME280;54261;46.086;6.588;2023-03-03T08:37:42;92486.25;;;0.01;47.62
67377;BME280;54261;46.086;6.588;2023-03-03T08:42:44;92482.81;;;-5.15;62.99
67377;BME280;54261;46.086;6.588;2023-03-03T08:47:46;92477.38;;;-6.78;69.55
67377;BME280;54261;46.086;6.588;2023-03-03T08:52:48;92472.38;;;-4.54;64.46
67377;BME280;54261;46.086;6.588;2023-03-03T08:57:50;92477.47;;;-3.45;59.21
67377;BME280;54261;46.086;6.588;2023-03-03T09:02:52;92480.91;;;-1.99;56.44
67377;BME280;54261;46.086;6.588;2023-03-03T09:07:54;92467.94;;;-0.38;52.47
67377;BME280;54261;46.086;6.588;2023-03-03T09:12:58;92478.88;;;-0.79;55.36
67377;BME280;54261;46.086;6.588;2023-03-03T09:23:35;92484.31;;;-4.88;65.29
67377;BME280;54261;46.086;6.588;2023-03-03T09:28:37;92489.22;;;-2.83;56.23
67377;BME280;54261;46.086;6.588;2023-03-03T09:33:48;92482.53;;;-2.44;56.38
67377;BME280;54261;46.086;6.588;2023-03-03T09:38:53;92488.97;;;-6.35;69.99
67377;BME280;54261;46.086;6.588;2023-03-03T09:49:35;92485.94;;;-3.91;63.80
67377;BME280;54261;46.086;6.588;2023-03-03T09:54:51;92507.03;;;-2.56;57.69
67377;BME280;54261;46.086;6.588;2023-03-03T10:00:03;92514.41;;;-4.06;60.95
67377;BME280;54261;46.086;6.588;2023-03-03T10:26:54;92507.38;;;-2.52;60.12
67377;BME280;54261;46.086;6.588;2023-03-03T10:32:42;92497.78;;;-4.00;62.36
67377;BME280;54261;46.086;6.588;2023-03-03T10:38:29;92515.69;;;-5.19;67.08
67377;BME280;54261;46.086;6.588;2023-03-03T10:49:24;92500.63;;;-3.30;67.46
67377;BME280;54261;46.086;6.588;2023-03-03T10:59:59;92517.44;;;-5.32;68.26
67377;BME280;54261;46.086;6.588;2023-03-03T11:05:23;92515.03;;;-2.80;65.43
67377;BME280;54261;46.086;6.588;2023-03-03T11:16:12;92526.44;;;-3.63;68.38
67377;BME280;54261;46.086;6.588;2023-03-03T11:36:47;92514.28;;;-0.47;56.55
67377;BME280;54261;46.086;6.588;2023-03-03T11:42:00;92515.03;;;0.03;54.19
67377;BME280;54261;46.086;6.588;2023-03-03T11:57:52;92511.91;;;-4.01;65.18
67377;BME280;54261;46.086;6.588;2023-03-03T12:08:20;92488.50;;;-3.19;64.75
67377;BME280;54261;46.086;6.588;2023-03-03T12:13:29;92504.19;;;-2.54;59.63
67377;BME280;54261;46.086;6.588;2023-03-03T12:18:41;92497.50;;;-4.22;64.99
67377;BME280;54261;46.086;6.588;2023-03-03T12:29:31;92498.97;;;-2.37;60.73
67377;BME280;54261;46.086;6.588;2023-03-03T12:34:46;92464.16;;;-2.73;59.79
67377;BME280;54261;46.086;6.588;2023-03-03T12:40:08;92475.16;;;-2.30;58.97
67377;BME280;54261;46.086;6.588;2023-03-03T12:56:03;92491.53;;;-1.60;56.96
67377;BME280;54261;46.086;6.588;2023-03-03T13:06:32;92481.88;;;-3.10;63.38
67377;BME280;54261;46.086;6.588;2023-03-03T13:23:06;92481.50;;;-4.44;69.50
67377;BME280;54261;46.086;6.588;2023-03-03T13:28:29;92460.66;;;-3.20;63.38
67377;BME280;54261;46.086;6.588;2023-03-03T13:33:34;92479.22;;;-2.23;61.17
67377;BME280;54261;46.086;6.588;2023-03-03T13:38:42;92481.31;;;-3.24;67.19
67377;BME280;54261;46.086;6.588;2023-03-03T13:43:56;92494.47;;;-3.59;67.30
67377;BME280;54261;46.086;6.588;2023-03-03T13:59:50;92486.09;;;-2.04;61.52
67377;BME280;54261;46.086;6.588;2023-03-03T14:05:03;92494.59;;;-1.85;63.53
67377;BME280;54261;46.086;6.588;2023-03-03T14:10:27;92472.19;;;-2.34;60.05
67377;BME280;54261;46.086;6.588;2023-03-03T14:20:48;92498.97;;;-2.37;65.47
67377;BME280;54261;46.086;6.588;2023-03-03T14:26:13;92491.50;;;-2.57;65.42
67377;BME280;54261;46.086;6.588;2023-03-03T14:36:26;92494.69;;;-2.09;63.27
67377;BME280;54261;46.086;6.588;2023-03-03T14:41:38;92495.56;;;-2.21;59.74
67377;BME280;54261;46.086;6.588;2023-03-03T14:46:40;92497.59;;;-1.20;59.26
67377;BME280;54261;46.086;6.588;2023-03-03T14:51:47;92495.56;;;-2.21;60.62
67377;BME280;54261;46.086;6.588;2023-03-03T15:07:35;92495.31;;;-1.73;59.48
67377;BME280;54261;46.086;6.588;2023-03-03T15:12:40;92489.28;;;-0.67;59.62
67377;BME280;54261;46.086;6.588;2023-03-03T15:17:52;92490.69;;;-0.32;55.04
67377;BME280;54261;46.086;6.588;2023-03-03T15:22:57;92491.25;;;-2.27;61.05
67377;BME280;54261;46.086;6.588;2023-03-03T15:45:03;92487.63;;;0.80;53.84
67377;BME280;54261;46.086;6.588;2023-03-03T16:06:23;92509.84;;;1.42;51.29
67377;BME280;54261;46.086;6.588;2023-03-03T16:27:55;92438.34;;;1.22;50.87
67377;BME280;54261;46.086;6.588;2023-03-03T16:54:46;92481.38;;;1.86;46.54
67377;BME280;54261;46.086;6.588;2023-03-03T17:05:23;92554.22;;;2.20;46.81
67377;BME280;54261;46.086;6.588;2023-03-03T17:15:37;92563.09;;;1.67;47.36
67377;BME280;54261;46.086;6.588;2023-03-03T17:20:56;92567.41;;;0.44;50.09
67377;BME280;54261;46.086;6.588;2023-03-03T17:31:09;92579.38;;;2.33;47.90
67377;BME280;54261;46.086;6.588;2023-03-03T17:47:06;92587.81;;;3.49;45.63
67377;BME280;54261;46.086;6.588;2023-03-03T18:08:17;92599.84;;;2.94;43.25
67377;BME280;54261;46.086;6.588;2023-03-03T18:29:31;92631.94;;;2.98;45.33
67377;BME280;54261;46.086;6.588;2023-03-03T18:34:38;92619.91;;;4.28;43.60
67377;BME280;54261;46.086;6.588;2023-03-03T18:39:47;92631.03;;;4.36;42.32
67377;BME280;54261;46.086;6.588;2023-03-03T18:44:49;92629.03;;;4.62;42.21
67377;BME280;54261;46.086;6.588;2023-03-03T18:50:03;92624.31;;;4.89;41.47
67377;BME280;54261;46.086;6.588;2023-03-03T19:00:13;92643.38;;;4.61;40.67
67377;BME280;54261;46.086;6.588;2023-03-03T19:05:21;92644.19;;;4.56;40.28
67377;BME280;54261;46.086;6.588;2023-03-03T19:10:47;92637.50;;;2.86;44.22
67377;BME280;54261;46.086;6.588;2023-03-03T19:15:54;92616.50;;;3.47;42.19
67377;BME280;54261;46.086;6.588;2023-03-03T19:20:59;92651.31;;;1.88;44.64
67377;BME280;54261;46.086;6.588;2023-03-03T19:26:29;92651.03;;;3.31;42.38
67377;BME280;54261;46.086;6.588;2023-03-03T19:37:06;92656.00;;;0.57;48.70
67377;BME280;54261;46.086;6.588;2023-03-03T19:52:45;92674.56;;;2.44;44.68
67377;BME280;54261;46.086;6.588;2023-03-03T20:09:07;92669.59;;;1.41;48.56
67377;BME280;54261;46.086;6.588;2023-03-03T20:24:49;92684.00;;;2.14;45.98
67377;BME280;54261;46.086;6.588;2023-03-03T20:56:35;92682.25;;;3.70;41.65
67377;BME280;54261;46.086;6.588;2023-03-03T21:01:55;92690.19;;;3.70;40.91
67377;BME280;54261;46.086;6.588;2023-03-03T21:07:02;92681.25;;;4.37;41.68
67377;BME280;54261;46.086;6.588;2023-03-03T21:12:11;92673.50;;;3.70;40.61
67377;BME280;54261;46.086;6.588;2023-03-03T21:17:28;92694.56;;;4.27;40.59
67377;BME280;54261;46.086;6.588;2023-03-03T21:22:34;92694.09;;;4.14;40.41
67377;BME280;54261;46.086;6.588;2023-03-03T21:27:35;92682.22;;;3.86;41.12
67377;BME280;54261;46.086;6.588;2023-03-03T21:32:44;92691.31;;;3.49;40.64
67377;BME280;54261;46.086;6.588;2023-03-03T21:37:52;92694.38;;;3.97;39.86
67377;BME280;54261;46.086;6.588;2023-03-03T21:42:56;92689.06;;;4.13;40.49
67377;BME280;54261;46.086;6.588;2023-03-03T21:47:59;92688.84;;;3.94;40.50
67377;BME280;54261;46.086;6.588;2023-03-03T21:53:04;92702.91;;;3.94;40.13
67377;BME280;54261;46.086;6.588;2023-03-03T21:58:06;92707.16;;;4.66;40.01
67377;BME280;54261;46.086;6.588;2023-03-03T22:03:08;92706.53;;;4.80;39.29
67377;BME280;54261;46.086;6.588;2023-03-03T22:08:10;92701.47;;;4.83;39.22
67377;BME280;54261;46.086;6.588;2023-03-03T22:13:12;92689.34;;;4.62;39.15
67377;BME280;54261;46.086;6.588;2023-03-03T22:18:16;92703.63;;;4.81;38.55
67377;BME280;54261;46.086;6.588;2023-03-03T22:23:21;92698.72;;;3.73;40.21
67377;BME280;54261;46.086;6.588;2023-03-03T22:28:23;92692.09;;;3.60;40.55
67377;BME280;54261;46.086;6.588;2023-03-03T22:33:24;92686.19;;;3.83;40.31
67377;BME280;54261;46.086;6.588;2023-03-03T22:38:26;92694.38;;;4.68;39.89
67377;BME280;54261;46.086;6.588;2023-03-03T22:43:28;92630.25;;;4.35;38.93
67377;BME280;54261;46.086;6.588;2023-03-03T22:48:30;92707.88;;;4.27;38.76
67377;BME280;54261;46.086;6.588;2023-03-03T22:53:32;92703.28;;;4.43;39.34
67377;BME280;54261;46.086;6.588;2023-03-03T22:58:34;92693.63;;;5.03;39.04
67377;BME280;54261;46.086;6.588;2023-03-03T23:03:36;92696.44;;;5.17;38.34
67377;BME280;54261;46.086;6.588;2023-03-03T23:08:37;92687.25;;;5.33;38.16
67377;BME280;54261;46.086;6.588;2023-03-03T23:13:39;92690.16;;;5.02;37.43
67377;BME280;54261;46.086;6.588;2023-03-03T23:18:41;92693.69;;;1.45;44.25
67377;BME280;54261;46.086;6.588;2023-03-03T23:23:43;92702.88;;;4.10;40.72
67377;BME280;54261;46.086;6.588;2023-03-03T23:28:45;92706.16;;;4.52;39.41
67377;BME280;54261;46.086;6.588;2023-03-03T23:33:46;92715.56;;;4.84;38.99
67377;BME280;54261;46.086;6.588;2023-03-03T23:38:48;92711.94;;;5.09;38.78
67377;BME280;54261;46.086;6.588;2023-03-03T23:43:50;92715.50;;;4.94;38.82
67377;BME280;54261;46.086;6.588;2023-03-03T23:48:51;92719.16;;;5.44;38.67
67377;BME280;54261;46.086;6.588;2023-03-03T23:53:53;92718.16;;;5.34;37.56
67377;BME280;54261;46.086;6.588;2023-03-03T23:58:55;92715.00;;;5.27;38.73
